Time;durP1;ratioP1;P1;durP2;ratioP2;P2;SDS_P1;SDS_P2;PMS_P1;PMS_P2;Temp;Humidity;BMP_temperature;BMP_pressure;BME280_temperature;BME280_humidity;BME280_pressure;Samples;Min_cycle;Max_cycle;Signal;HPM_P1;HPM_P2
2022/02/16 00:02:11;;;;;;;15.80;7.13;;;7.00;99.90;;;;;;5033373;28;20037;-74
2022/02/16 00:04:38;;;;;;;13.80;7.65;;;6.90;99.90;;;;;;5046209;28;20589;-74
2022/02/16 00:07:04;;;;;;;14.40;6.88;;;6.90;99.90;;;;;;5047243;28;20041;-74
2022/02/16 00:09:31;;;;;;;18.38;7.78;;;6.80;99.90;;;;;;5051942;28;20076;-74
2022/02/16 00:11:57;;;;;;;20.27;8.25;;;6.80;99.90;;;;;;5050653;28;20067;-74
2022/02/16 00:14:22;;;;;;;13.77;6.68;;;6.80;99.90;;;;;;5051032;28;20447;-74
2022/02/16 00:16:48;;;;;;;15.85;6.78;;;6.80;99.90;;;;;;5050891;28;20044;-74
2022/02/16 00:19:14;;;;;;;20.23;7.97;;;6.70;99.90;;;;;;5047667;28;20775;-74
2022/02/16 00:21:40;;;;;;;20.15;7.13;;;6.70;99.90;;;;;;5022857;28;20037;-74
2022/02/16 00:24:06;;;;;;;22.17;8.35;;;6.70;99.90;;;;;;5037868;28;20386;-74
2022/02/16 00:26:31;;;;;;;22.58;8.73;;;6.60;99.90;;;;;;5048377;28;20047;-74
2022/02/16 00:28:57;;;;;;;22.55;8.73;;;6.60;99.90;;;;;;5046663;28;20045;-74
2022/02/16 00:31:22;;;;;;;23.60;8.98;;;6.60;99.90;;;;;;5052393;28;20475;-75
2022/02/16 00:33:48;;;;;;;22.58;8.95;;;6.60;99.90;;;;;;5051514;28;20470;-74
2022/02/16 00:36:13;;;;;;;15.13;9.02;;;6.60;99.90;;;;;;5050000;28;20122;-74
2022/02/16 00:38:39;;;;;;;22.35;9.63;;;6.60;99.90;;;;;;5035317;28;20454;-74
2022/02/16 00:41:05;;;;;;;22.20;8.98;;;6.60;99.90;;;;;;5051763;28;20037;-74
2022/02/16 00:43:31;;;;;;;23.13;9.23;;;6.60;99.90;;;;;;5034864;28;20494;-74
2022/02/16 00:45:57;;;;;;;23.95;9.02;;;6.60;99.90;;;;;;5052017;28;20394;-74
2022/02/16 00:48:22;;;;;;;25.70;8.52;;;6.60;99.90;;;;;;5051833;28;20053;-74
2022/02/16 00:50:48;;;;;;;23.35;8.43;;;6.60;99.90;;;;;;5052045;28;20049;-74
2022/02/16 00:53:13;;;;;;;26.33;8.68;;;6.70;99.90;;;;;;5050406;28;20041;-74
2022/02/16 00:55:39;;;;;;;21.05;6.80;;;6.70;99.90;;;;;;5051625;28;20037;-74
2022/02/16 00:58:08;;;;;;;23.27;7.70;;;6.70;99.90;;;;;;5051096;28;20049;-74
2022/02/16 01:00:35;;;;;;;25.90;6.68;;;6.70;99.90;;;;;;5034561;28;20033;-74
2022/02/16 01:03:01;;;;;;;18.08;6.43;;;6.80;99.90;;;;;;5034250;28;20075;-74
2022/02/16 01:05:27;;;;;;;25.83;6.22;;;6.80;99.90;;;;;;5048531;28;20060;-74
2022/02/16 01:07:53;;;;;;;20.92;6.25;;;6.80;99.90;;;;;;5049584;28;20045;-74
2022/02/16 01:10:19;;;;;;;21.02;5.95;;;6.80;99.90;;;;;;5051519;28;20474;-74
2022/02/16 01:12:45;;;;;;;21.35;5.45;;;6.80;99.90;;;;;;5034579;28;20143;-74
2022/02/16 01:15:10;;;;;;;21.35;6.07;;;6.80;99.90;;;;;;5051513;28;20136;-74
2022/02/16 01:17:36;;;;;;;16.80;5.40;;;6.80;99.90;;;;;;5051847;28;20136;-74
2022/02/16 01:20:03;;;;;;;23.95;6.00;;;6.80;99.90;;;;;;5050949;28;20482;-74
2022/02/16 01:22:28;;;;;;;23.73;5.38;;;6.80;99.90;;;;;;5051621;28;20128;-75
2022/02/16 01:24:54;;;;;;;18.13;4.75;;;6.70;99.90;;;;;;5049479;28;20128;-74
2022/02/16 01:27:19;;;;;;;24.13;5.10;;;6.70;99.90;;;;;;5050969;28;20052;-74
2022/02/16 01:29:45;;;;;;;18.17;4.93;;;6.70;99.90;;;;;;5035591;28;20446;-74
2022/02/16 01:32:11;;;;;;;17.60;5.13;;;6.70;99.90;;;;;;5033162;28;20041;-74
2022/02/16 01:34:36;;;;;;;23.90;5.70;;;6.70;99.90;;;;;;5045174;28;20056;-74
2022/02/16 01:37:02;;;;;;;17.27;4.50;;;6.70;99.90;;;;;;5049719;28;20505;-74
2022/02/16 01:39:28;;;;;;;14.85;3.92;;;6.70;99.90;;;;;;5050835;28;20052;-74
2022/02/16 01:41:55;;;;;;;20.27;4.60;;;6.60;99.90;;;;;;5049233;28;20045;-74
2022/02/16 01:44:24;;;;;;;19.38;3.75;;;6.70;99.90;;;;;;5041651;28;20044;-74
2022/02/16 01:46:52;;;;;;;15.23;4.22;;;6.70;99.90;;;;;;5031043;28;20052;-74
2022/02/16 01:49:17;;;;;;;16.15;4.07;;;6.70;99.90;;;;;;5047925;28;20037;-74
2022/02/16 01:51:44;;;;;;;17.42;3.65;;;6.60;99.90;;;;;;5015917;28;20041;-74
2022/02/16 01:54:11;;;;;;;20.35;4.78;;;6.60;99.90;;;;;;5015664;28;20038;-74
2022/02/16 01:56:36;;;;;;;23.92;4.07;;;6.60;99.90;;;;;;5027779;28;20483;-74
2022/02/16 01:59:02;;;;;;;20.50;4.10;;;6.70;99.90;;;;;;5038789;28;20043;-74
2022/02/16 02:01:28;;;;;;;22.63;4.45;;;6.70;99.90;;;;;;5048124;28;20037;-75
2022/02/16 02:03:53;;;;;;;18.98;3.42;;;6.70;99.90;;;;;;5050256;28;20052;-74
2022/02/16 02:06:19;;;;;;;13.52;3.20;;;6.70;99.90;;;;;;5041272;28;20064;-74
2022/02/16 02:08:44;;;;;;;20.52;4.22;;;6.70;99.90;;;;;;5052836;28;20067;-75
2022/02/16 02:11:10;;;;;;;22.50;4.20;;;6.70;99.90;;;;;;5029503;28;20045;-74
2022/02/16 02:13:36;;;;;;;18.42;4.05;;;6.70;99.90;;;;;;5046226;28;20041;-75
2022/02/16 02:16:01;;;;;;;19.33;4.78;;;6.80;99.90;;;;;;5045893;28;20041;-74
2022/02/16 02:18:27;;;;;;;18.30;3.70;;;6.70;99.90;;;;;;5050155;28;20044;-74
2022/02/16 02:20:52;;;;;;;18.92;3.80;;;6.70;99.90;;;;;;5047819;28;20037;-74
2022/02/16 02:23:18;;;;;;;15.20;4.82;;;6.80;99.90;;;;;;5047598;28;20041;-74
2022/02/16 02:25:50;;;;;;;15.57;4.57;;;6.80;99.90;;;;;;5049564;28;20048;-74
2022/02/16 02:28:17;;;;;;;19.42;4.80;;;6.80;99.90;;;;;;5032522;28;20080;-75
2022/02/16 02:30:43;;;;;;;18.15;5.65;;;6.80;99.90;;;;;;5027169;28;20056;-74
2022/02/16 02:33:09;;;;;;;17.10;6.82;;;6.80;99.90;;;;;;5042839;28;20038;-74
2022/02/16 02:35:34;;;;;;;25.17;8.57;;;6.80;99.90;;;;;;5043960;28;20041;-75
2022/02/16 02:38:00;;;;;;;19.48;8.23;;;6.90;99.90;;;;;;5035577;28;20063;-75
2022/02/16 02:40:25;;;;;;;20.90;9.82;;;6.90;99.90;;;;;;5048180;28;20048;-74
2022/02/16 02:42:51;;;;;;;18.58;9.50;;;6.90;99.90;;;;;;5049230;28;20040;-74
2022/02/16 02:45:16;;;;;;;14.60;8.82;;;6.90;99.90;;;;;;5031686;28;20043;-75
2022/02/16 02:47:42;;;;;;;19.05;10.07;;;7.00;99.90;;;;;;5049130;28;20076;-74
2022/02/16 02:50:09;;;;;;;20.60;11.02;;;7.00;99.90;;;;;;5048173;28;20036;-74
2022/02/16 02:52:38;;;;;;;17.58;11.30;;;7.00;99.90;;;;;;5049520;28;20037;-74
2022/02/16 02:55:05;;;;;;;19.38;11.38;;;7.10;99.90;;;;;;5047132;28;20095;-74
2022/02/16 02:57:30;;;;;;;20.75;11.60;;;7.10;99.90;;;;;;5032525;28;20459;-74
2022/02/16 02:59:56;;;;;;;21.80;12.13;;;7.20;99.90;;;;;;5045411;28;20037;-74
2022/02/16 03:02:23;;;;;;;22.50;14.07;;;7.20;99.90;;;;;;5033420;28;20132;-74
2022/02/16 03:04:49;;;;;;;23.23;13.77;;;7.20;99.90;;;;;;5041477;28;20044;-74
2022/02/16 03:07:14;;;;;;;19.45;13.60;;;7.30;99.90;;;;;;5044843;28;20140;-74
2022/02/16 03:09:40;;;;;;;20.13;13.70;;;7.30;99.90;;;;;;5028031;28;20049;-74
2022/02/16 03:12:07;;;;;;;21.35;15.60;;;7.40;99.90;;;;;;5031414;28;20120;-74
2022/02/16 03:14:34;;;;;;;24.33;16.48;;;7.40;99.90;;;;;;5048238;28;20364;-74
2022/02/16 03:16:59;;;;;;;23.48;18.13;;;7.40;99.90;;;;;;5049320;28;20119;-74
2022/02/16 03:19:25;;;;;;;20.40;16.75;;;7.40;99.90;;;;;;5043721;28;20128;-74
2022/02/16 03:21:50;;;;;;;26.92;18.48;;;7.40;99.90;;;;;;5046899;28;20072;-74
2022/02/16 03:24:16;;;;;;;20.90;17.67;;;7.50;99.90;;;;;;5049418;28;20052;-75
2022/02/16 03:26:41;;;;;;;24.55;18.05;;;7.50;99.90;;;;;;5032696;28;20041;-75
2022/02/16 03:29:07;;;;;;;19.58;16.17;;;7.50;99.90;;;;;;5044173;28;20045;-75
2022/02/16 03:31:33;;;;;;;21.35;17.35;;;7.50;99.90;;;;;;5037948;28;20045;-74
2022/02/16 03:33:58;;;;;;;24.60;17.70;;;7.50;99.90;;;;;;5033301;28;20041;-74
2022/02/16 03:36:26;;;;;;;21.20;17.27;;;7.60;99.90;;;;;;5048700;28;20152;-74
2022/02/16 03:38:52;;;;;;;23.05;16.98;;;7.60;99.90;;;;;;5047151;28;20060;-74
2022/02/16 03:41:17;;;;;;;21.13;18.10;;;7.60;99.90;;;;;;5031671;28;20033;-74
2022/02/16 03:43:43;;;;;;;20.20;17.73;;;7.60;99.90;;;;;;5028344;28;20545;-74
2022/02/16 03:46:08;;;;;;;19.73;17.73;;;7.60;99.90;;;;;;5042793;28;20040;-75
2022/02/16 03:48:34;;;;;;;18.33;16.25;;;7.60;99.90;;;;;;5048780;28;20048;-74
2022/02/16 03:50:59;;;;;;;20.25;17.50;;;7.60;99.90;;;;;;5041945;28;20044;-74
2022/02/16 03:53:25;;;;;;;19.45;16.33;;;7.60;99.90;;;;;;5052313;28;20108;-74
2022/02/16 03:55:51;;;;;;;20.00;15.65;;;7.60;99.90;;;;;;5050865;28;20444;-74
2022/02/16 03:58:16;;;;;;;18.60;16.42;;;7.60;99.90;;;;;;5045301;28;20064;-74
2022/02/16 04:00:42;;;;;;;20.52;17.02;;;7.70;99.90;;;;;;5045849;28;20130;-74
2022/02/16 04:03:09;;;;;;;20.42;16.45;;;7.70;99.90;;;;;;5052280;28;20051;-73
2022/02/16 04:05:35;;;;;;;20.10;16.60;;;7.60;99.90;;;;;;5051506;28;20747;-74
2022/02/16 04:08:00;;;;;;;21.00;17.23;;;7.60;99.90;;;;;;5052635;28;20131;-74
2022/02/16 04:10:26;;;;;;;18.08;15.90;;;7.60;99.90;;;;;;5019462;28;20415;-74
2022/02/16 04:12:52;;;;;;;18.73;16.00;;;7.70;99.90;;;;;;5051710;28;20068;-74
2022/02/16 04:15:17;;;;;;;22.05;17.30;;;7.60;99.90;;;;;;5051117;28;20095;-74
2022/02/16 04:17:43;;;;;;;18.40;16.27;;;7.70;99.90;;;;;;5052398;28;20040;-74
2022/02/16 04:20:09;;;;;;;19.73;15.88;;;7.60;99.90;;;;;;5049765;28;20036;-74
2022/02/16 04:22:42;;;;;;;16.88;14.63;;;7.70;99.90;;;;;;5051648;28;20047;-74
2022/02/16 04:25:08;;;;;;;19.05;16.40;;;7.70;99.90;;;;;;5052290;28;20055;-74
2022/02/16 04:27:33;;;;;;;20.48;16.38;;;7.80;99.90;;;;;;5051725;28;20525;-74
2022/02/16 04:29:59;;;;;;;18.35;14.95;;;7.70;99.90;;;;;;5018311;28;20045;-74
2022/02/16 04:32:24;;;;;;;19.45;14.40;;;7.70;99.90;;;;;;5049771;28;20044;-74
2022/02/16 04:34:50;;;;;;;17.98;15.07;;;7.80;99.90;;;;;;5034219;28;20046;-73
2022/02/16 04:37:15;;;;;;;19.90;14.63;;;7.80;99.90;;;;;;5051672;28;20047;-74
2022/02/16 04:39:41;;;;;;;16.20;12.93;;;7.80;99.90;;;;;;5050968;28;20232;-75
2022/02/16 04:42:07;;;;;;;19.35;13.63;;;7.80;99.90;;;;;;5044543;28;20120;-74
2022/02/16 04:44:32;;;;;;;16.27;13.50;;;7.80;99.90;;;;;;5051398;28;20025;-74
2022/02/16 04:46:58;;;;;;;17.15;13.55;;;7.80;99.90;;;;;;5050228;28;20370;-74
2022/02/16 04:49:24;;;;;;;18.40;12.90;;;7.80;99.90;;;;;;5051720;28;20052;-74
2022/02/16 04:51:50;;;;;;;14.77;11.50;;;7.70;99.90;;;;;;5050785;28;20033;-74
2022/02/16 04:54:16;;;;;;;14.13;12.02;;;7.80;99.90;;;;;;5051529;28;20086;-74
2022/02/16 04:56:41;;;;;;;14.80;12.10;;;7.80;99.90;;;;;;5051258;28;20036;-74
2022/02/16 04:59:07;;;;;;;14.07;11.75;;;7.80;99.90;;;;;;5051269;28;20072;-74
2022/02/16 05:01:32;;;;;;;13.23;10.68;;;7.80;99.90;;;;;;5033303;28;20040;-74
2022/02/16 05:03:58;;;;;;;13.75;8.63;;;7.90;99.90;;;;;;5050077;28;20449;-74
2022/02/16 05:06:23;;;;;;;11.88;9.85;;;7.90;99.90;;;;;;5050136;28;20056;-75
2022/02/16 05:08:49;;;;;;;11.30;8.88;;;7.90;99.90;;;;;;5034522;28;20041;-74
2022/02/16 05:11:15;;;;;;;14.20;10.23;;;7.90;99.90;;;;;;5049367;28;20120;-74
2022/02/16 05:13:40;;;;;;;12.55;8.48;;;7.90;99.90;;;;;;5051282;28;20063;-74
2022/02/16 05:16:06;;;;;;;14.25;9.30;;;7.90;99.90;;;;;;5050324;28;20045;-74
2022/02/16 05:18:33;;;;;;;11.00;9.65;;;7.90;99.90;;;;;;5042476;28;20068;-74
2022/02/16 05:21:00;;;;;;;11.77;9.40;;;7.90;99.90;;;;;;5074783;22;20056;-75
2022/02/16 05:23:25;;;;;;;11.07;9.85;;;7.90;99.90;;;;;;5062423;28;20131;-75
2022/02/16 05:25:53;;;;;;;12.52;9.55;;;7.90;99.90;;;;;;5062808;28;20127;-75
2022/02/16 05:28:20;;;;;;;13.65;9.50;;;7.90;99.90;;;;;;5056918;28;20044;-75
2022/02/16 05:30:45;;;;;;;12.70;9.32;;;7.90;99.90;;;;;;5083051;28;20048;-75
2022/02/16 05:33:11;;;;;;;13.07;9.73;;;8.00;99.90;;;;;;5061966;28;20052;-75
2022/02/16 05:35:36;;;;;;;13.10;10.13;;;8.00;99.90;;;;;;5056729;28;20037;-75
2022/02/16 05:38:02;;;;;;;10.98;9.32;;;8.00;99.90;;;;;;5069751;28;20409;-75
2022/02/16 05:40:28;;;;;;;11.98;9.95;;;8.00;99.90;;;;;;5062839;28;20112;-75
2022/02/16 05:42:54;;;;;;;11.30;9.70;;;8.00;99.90;;;;;;5051126;28;20072;-76
2022/02/16 05:45:20;;;;;;;12.95;10.75;;;8.00;99.90;;;;;;5052740;28;20798;-75
2022/02/16 05:47:45;;;;;;;10.75;9.13;;;8.00;99.90;;;;;;5053857;28;20048;-75
2022/02/16 05:50:11;;;;;;;11.65;10.43;;;8.10;99.90;;;;;;5070510;28;20037;-75
2022/02/16 05:52:37;;;;;;;12.80;10.43;;;8.10;99.90;;;;;;5058950;28;20052;-75
2022/02/16 05:55:04;;;;;;;12.25;10.95;;;8.10;99.90;;;;;;5064450;28;20378;-75
2022/02/16 05:57:32;;;;;;;14.07;11.73;;;8.00;99.90;;;;;;5087618;28;20498;-75
2022/02/16 05:59:58;;;;;;;17.48;13.30;;;8.00;99.90;;;;;;5035155;28;20120;-75
2022/02/16 06:02:24;;;;;;;13.25;11.85;;;8.10;99.90;;;;;;5067492;28;20029;-75
2022/02/16 06:04:50;;;;;;;12.80;11.43;;;8.10;99.90;;;;;;5068837;28;20041;-75
2022/02/16 06:07:15;;;;;;;12.48;11.27;;;8.10;99.90;;;;;;5064980;28;20049;-75
2022/02/16 06:09:41;;;;;;;11.07;10.07;;;8.20;99.90;;;;;;5058791;28;20037;-75
2022/02/16 06:12:07;;;;;;;12.50;11.27;;;8.20;99.90;;;;;;5050639;28;20132;-75
2022/02/16 06:14:33;;;;;;;12.32;11.13;;;8.10;99.90;;;;;;5060785;28;20049;-75
2022/02/16 06:16:58;;;;;;;12.48;11.18;;;8.20;99.90;;;;;;5061772;28;20478;-76
2022/02/16 06:19:24;;;;;;;11.75;9.25;;;8.20;99.90;;;;;;5051812;28;20148;-75
2022/02/16 06:21:49;;;;;;;12.07;10.68;;;8.20;99.90;;;;;;5031197;28;20056;-75
2022/02/16 06:24:15;;;;;;;11.48;10.30;;;8.20;99.90;;;;;;5016447;28;20065;-74
2022/02/16 06:26:41;;;;;;;10.68;9.60;;;8.20;99.90;;;;;;5017418;28;20403;-75
2022/02/16 06:29:06;;;;;;;10.60;9.57;;;8.20;99.90;;;;;;5018759;28;20503;-75
2022/02/16 06:31:32;;;;;;;12.70;11.40;;;8.20;99.90;;;;;;5017548;28;20033;-75
2022/02/16 06:33:57;;;;;;;11.82;10.68;;;8.20;99.90;;;;;;5015048;28;20057;-75
2022/02/16 06:36:23;;;;;;;10.75;9.73;;;8.20;99.90;;;;;;5039244;28;20044;-75
2022/02/16 06:38:50;;;;;;;10.93;9.82;;;8.20;99.90;;;;;;5020277;28;20049;-75
2022/02/16 06:41:17;;;;;;;10.65;9.65;;;8.20;99.90;;;;;;5029600;28;20167;-75
2022/02/16 06:43:42;;;;;;;9.73;8.90;;;8.20;99.90;;;;;;5024774;28;20092;-75
2022/02/16 06:46:08;;;;;;;8.35;7.65;;;8.20;99.90;;;;;;5013553;28;20666;-75
2022/02/16 06:48:34;;;;;;;9.07;8.18;;;8.20;99.90;;;;;;5030332;28;20064;-75
2022/02/16 06:50:59;;;;;;;9.02;8.13;;;8.20;99.90;;;;;;5018145;28;20033;-75
2022/02/16 06:53:25;;;;;;;9.13;8.32;;;8.30;99.90;;;;;;5030069;28;20176;-75
2022/02/16 06:55:51;;;;;;;7.68;6.40;;;8.30;99.90;;;;;;5029723;28;20471;-75
2022/02/16 06:58:17;;;;;;;7.90;7.10;;;8.30;99.90;;;;;;5024726;28;20037;-75
2022/02/16 07:00:43;;;;;;;6.60;6.00;;;8.30;99.90;;;;;;5042889;28;20038;-75
2022/02/16 07:03:08;;;;;;;6.97;6.38;;;8.30;99.90;;;;;;5010272;28;20501;-75
2022/02/16 07:05:34;;;;;;;6.43;5.82;;;8.30;99.90;;;;;;5018862;28;20120;-75
2022/02/16 07:08:00;;;;;;;5.97;5.38;;;8.30;99.90;;;;;;5029211;28;20049;-75
2022/02/16 07:10:25;;;;;;;5.82;5.32;;;8.30;99.90;;;;;;5019396;28;20057;-75
2022/02/16 07:12:52;;;;;;;5.22;4.72;;;8.40;99.90;;;;;;5028867;28;20033;-75
2022/02/16 07:15:17;;;;;;;5.07;4.68;;;8.40;99.90;;;;;;5027008;28;20034;-75
2022/02/16 07:17:43;;;;;;;6.20;3.78;;;8.40;99.90;;;;;;5029556;28;20064;-75
2022/02/16 07:20:11;;;;;;;4.82;4.40;;;8.50;99.90;;;;;;5013940;28;20033;-76
2022/02/16 07:22:39;;;;;;;4.95;4.53;;;8.50;99.90;;;;;;5032692;28;20110;-75
2022/02/16 07:25:05;;;;;;;4.38;3.97;;;8.50;99.90;;;;;;5049274;28;20080;-75
2022/02/16 07:27:30;;;;;;;4.28;3.90;;;8.50;99.90;;;;;;5060186;28;20037;-75
2022/02/16 07:29:56;;;;;;;3.75;3.45;;;8.60;99.90;;;;;;5062075;28;20103;-74
2022/02/16 07:32:21;;;;;;;4.35;4.05;;;8.60;99.90;;;;;;5054517;28;20123;-75
2022/02/16 07:34:47;;;;;;;3.80;3.40;;;8.70;99.90;;;;;;5058669;28;20052;-75
2022/02/16 07:37:12;;;;;;;3.38;3.08;;;8.70;99.90;;;;;;5067309;28;20051;-74
2022/02/16 07:39:38;;;;;;;3.25;2.95;;;8.70;99.90;;;;;;5038724;28;20033;-74
2022/02/16 07:42:04;;;;;;;3.00;2.75;;;8.80;99.90;;;;;;5065420;28;20040;-75
2022/02/16 07:44:29;;;;;;;2.88;2.67;;;8.80;99.90;;;;;;5064153;28;20044;-75
2022/02/16 07:46:55;;;;;;;3.25;2.97;;;8.80;99.90;;;;;;5074342;28;20429;-75
2022/02/16 07:49:20;;;;;;;2.90;2.70;;;8.90;99.90;;;;;;5060188;28;20040;-75
2022/02/16 07:51:46;;;;;;;2.75;2.33;;;9.00;99.90;;;;;;5082318;28;20053;-75
2022/02/16 07:54:12;;;;;;;2.00;1.90;;;9.00;99.90;;;;;;5066452;28;20040;-75
2022/02/16 07:56:38;;;;;;;3.03;2.75;;;9.00;99.90;;;;;;5052700;28;20047;-75
2022/02/16 07:59:04;;;;;;;3.00;2.38;;;9.00;99.90;;;;;;5088062;28;20449;-75
2022/02/16 08:01:30;;;;;;;2.35;2.15;;;9.10;99.90;;;;;;5065270;28;20029;-75
2022/02/16 08:04:15;;;;;;;1.92;1.83;;;9.10;99.90;;;;;;5068420;28;20052;-75
2022/02/16 08:06:41;;;;;;;2.40;2.20;;;9.10;99.90;;;;;;5068250;28;20174;-75
2022/02/16 08:09:10;;;;;;;1.70;1.50;;;9.20;99.90;;;;;;5062170;28;20064;-75
2022/02/16 08:11:36;;;;;;;1.88;1.77;;;9.30;99.90;;;;;;5086230;28;20072;-75
2022/02/16 08:14:02;;;;;;;2.30;2.10;;;9.30;99.90;;;;;;5059868;28;20187;-76
2022/02/16 08:16:28;;;;;;;1.70;1.60;;;9.30;99.90;;;;;;5082605;28;20043;-75
2022/02/16 08:18:53;;;;;;;1.67;1.58;;;9.40;99.90;;;;;;5062008;28;20466;-75
2022/02/16 08:21:19;;;;;;;2.15;1.50;;;9.40;99.90;;;;;;5067144;28;20401;-75
2022/02/16 08:23:44;;;;;;;1.20;1.10;;;9.50;99.90;;;;;;5084315;28;20060;-75
2022/02/16 08:26:10;;;;;;;1.63;1.40;;;9.60;99.90;;;;;;5063008;28;20137;-75
2022/02/16 08:28:37;;;;;;;1.27;1.17;;;9.50;99.90;;;;;;5056814;28;20039;-75
2022/02/16 08:31:03;;;;;;;1.58;1.15;;;9.50;99.90;;;;;;5050851;28;20037;-75
2022/02/16 08:33:29;;;;;;;1.10;1.10;;;9.60;99.90;;;;;;5064529;28;20371;-75
2022/02/16 08:35:54;;;;;;;3.22;1.45;;;9.50;99.90;;;;;;5086415;28;20036;-75
2022/02/16 08:38:20;;;;;;;1.20;1.10;;;9.60;99.90;;;;;;5064022;28;20124;-75
2022/02/16 08:40:46;;;;;;;1.20;0.93;;;9.60;99.90;;;;;;5066024;28;20036;-75
2022/02/16 08:43:11;;;;;;;0.90;0.90;;;9.80;99.90;;;;;;5064078;28;20485;-75
2022/02/16 08:45:37;;;;;;;0.80;0.80;;;9.80;99.90;;;;;;5064579;28;20040;-75
2022/02/16 08:48:03;;;;;;;0.70;0.70;;;9.80;99.90;;;;;;5074608;28;20041;-75
2022/02/16 08:50:28;;;;;;;1.00;1.00;;;9.70;99.90;;;;;;5058190;28;20028;-75
2022/02/16 08:52:54;;;;;;;1.00;1.00;;;9.80;99.90;;;;;;5062501;28;20445;-75
2022/02/16 08:55:19;;;;;;;1.40;1.30;;;9.80;99.90;;;;;;5076734;28;20037;-75
2022/02/16 08:57:45;;;;;;;1.38;0.80;;;9.80;99.90;;;;;;5057626;28;20818;-75
2022/02/16 09:00:11;;;;;;;1.75;0.90;;;9.80;99.90;;;;;;5059795;28;20457;-75
2022/02/16 09:02:37;;;;;;;0.73;0.73;;;9.90;99.90;;;;;;5068497;28;20122;-75
2022/02/16 09:05:03;;;;;;;0.95;0.82;;;9.90;99.90;;;;;;5075666;28;20044;-74
2022/02/16 09:07:30;;;;;;;0.80;0.80;;;9.90;99.90;;;;;;5077298;28;20482;-74
2022/02/16 09:09:59;;;;;;;0.88;0.88;;;9.90;99.90;;;;;;5059252;28;20640;-74
2022/02/16 09:12:26;;;;;;;0.98;0.93;;;9.90;99.90;;;;;;5056542;28;20082;-74
2022/02/16 09:14:52;;;;;;;0.93;0.75;;;9.90;99.90;;;;;;5060439;28;20102;-74
2022/02/16 09:17:17;;;;;;;1.13;0.90;;;10.00;99.90;;;;;;5052119;28;20630;-74
2022/02/16 09:19:43;;;;;;;0.95;0.82;;;10.00;99.90;;;;;;5062564;28;20039;-75
2022/02/16 09:22:10;;;;;;;1.02;0.93;;;10.00;99.90;;;;;;5069481;28;20617;-75
2022/02/16 09:24:36;;;;;;;3.22;1.38;;;10.10;99.90;;;;;;5068711;28;20060;-75
2022/02/16 09:27:02;;;;;;;3.35;2.00;;;10.10;99.90;;;;;;5058558;28;20024;-75
2022/02/16 09:29:27;;;;;;;5.25;2.45;;;10.20;99.90;;;;;;5056665;28;20079;-75
2022/02/16 09:31:54;;;;;;;4.65;2.60;;;10.20;99.90;;;;;;5067778;28;20049;-75
2022/02/16 09:34:20;;;;;;;5.63;3.47;;;10.20;99.90;;;;;;5052208;28;20120;-75
2022/02/16 09:36:46;;;;;;;5.40;2.92;;;10.20;99.90;;;;;;5060771;28;20040;-75
2022/02/16 09:39:12;;;;;;;10.70;3.67;;;10.30;99.90;;;;;;5060715;28;20041;-75
2022/02/16 09:41:38;;;;;;;9.32;2.65;;;10.40;99.90;;;;;;5061370;28;20496;-74
2022/02/16 09:44:05;;;;;;;7.25;3.30;;;10.50;99.90;;;;;;5054042;28;20036;-74
2022/02/16 09:46:30;;;;;;;9.55;3.30;;;10.60;99.90;;;;;;5055356;28;20048;-74
2022/02/16 09:48:57;;;;;;;7.43;2.80;;;10.60;99.90;;;;;;5082835;28;20036;-75
2022/02/16 09:51:24;;;;;;;9.43;2.47;;;10.60;99.90;;;;;;5087575;28;20047;-74
2022/02/16 09:53:50;;;;;;;7.72;2.63;;;10.60;99.90;;;;;;5069304;28;20036;-75
2022/02/16 09:56:15;;;;;;;7.97;2.20;;;10.70;99.90;;;;;;5070453;28;20044;-75
2022/02/16 09:58:41;;;;;;;8.38;2.33;;;10.80;99.90;;;;;;5055961;28;20047;-74
2022/02/16 10:01:12;;;;;;;9.38;2.10;;;10.90;99.90;;;;;;5069734;28;20036;-75
2022/02/16 10:03:39;;;;;;;10.00;2.50;;;11.00;99.90;;;;;;5066095;28;20375;-76
2022/02/16 10:06:04;;;;;;;9.45;2.35;;;11.10;99.90;;;;;;5064258;28;20332;-75
2022/02/16 10:08:45;;;;;;;12.25;2.53;;;11.10;99.90;;;;;;5080046;28;20036;-75
2022/02/16 10:11:12;;;;;;;8.63;2.08;;;11.20;99.90;;;;;;5065117;28;20162;-75
2022/02/16 10:13:38;;;;;;;6.38;1.90;;;11.30;99.90;;;;;;5079868;28;20093;-75
2022/02/16 10:16:05;;;;;;;7.63;2.30;;;11.30;99.90;;;;;;5085552;28;20417;-75
2022/02/16 10:18:31;;;;;;;9.13;2.25;;;11.40;99.90;;;;;;5086671;28;20425;-75
2022/02/16 10:21:05;;;;;;;9.27;1.90;;;11.40;99.90;;;;;;5065451;28;20099;-75
2022/02/16 10:23:46;;;;;;;7.97;1.70;;;11.40;99.90;;;;;;5079991;28;20057;-75
2022/02/16 10:26:13;;;;;;;8.15;2.28;;;11.50;99.90;;;;;;5060163;28;20115;-75
2022/02/16 10:28:44;;;;;;;8.40;2.47;;;11.50;99.90;;;;;;5063537;28;20079;-76
2022/02/16 10:31:11;;;;;;;7.70;2.10;;;11.50;99.90;;;;;;5052034;28;20033;-76
2022/02/16 10:33:43;;;;;;;19.52;3.40;;;11.60;99.90;;;;;;5057751;28;20045;-76
2022/02/16 10:36:14;;;;;;;10.50;1.90;;;11.70;99.90;;;;;;5057162;28;20048;-76
2022/02/16 10:38:59;;;;;;;7.45;1.98;;;11.80;99.90;;;;;;5065968;28;20036;-76
2022/02/16 10:41:30;;;;;;;7.90;2.00;;;11.90;99.90;;;;;;5075705;28;20386;-75
2022/02/16 10:44:00;;;;;;;9.95;2.55;;;12.00;99.90;;;;;;5060098;28;20736;-75
2022/02/16 10:46:28;;;;;;;8.60;1.65;;;12.10;99.90;;;;;;5065618;28;20041;-75
2022/02/16 10:49:12;;;;;;;6.88;1.88;;;12.20;99.90;;;;;;5063019;28;20165;-75
2022/02/16 10:51:39;;;;;;;7.88;2.15;;;12.30;99.90;;;;;;5055364;28;20044;-75
2022/02/16 10:54:19;;;;;;;9.45;1.80;;;12.20;99.90;;;;;;5060100;28;20543;-76
2022/02/16 10:56:48;;;;;;;11.18;2.00;;;12.20;99.90;;;;;;5064888;28;20331;-76
2022/02/16 10:59:14;;;;;;;3.72;1.45;;;12.10;99.90;;;;;;5041572;28;20474;-76
2022/02/16 11:01:41;;;;;;;13.55;2.38;;;12.00;99.90;;;;;;5087516;28;20043;-76
2022/02/16 11:04:10;;;;;;;11.10;2.40;;;12.00;99.90;;;;;;5077396;28;20036;-75
2022/02/16 11:06:38;;;;;;;9.38;1.98;;;12.00;99.90;;;;;;5088246;28;20044;-75
2022/02/16 11:09:05;;;;;;;11.85;3.15;;;12.00;99.90;;;;;;5083414;28;20085;-75
2022/02/16 11:11:32;;;;;;;11.75;2.40;;;12.00;99.90;;;;;;5059344;28;20037;-76
2022/02/16 11:14:00;;;;;;;9.00;1.77;;;12.00;99.90;;;;;;5065178;28;20473;-76
2022/02/16 11:16:26;;;;;;;9.25;2.25;;;12.00;99.90;;;;;;5070065;28;20370;-76
2022/02/16 11:18:59;;;;;;;14.07;2.60;;;12.00;99.90;;;;;;5076798;28;20068;-76
2022/02/16 11:21:28;;;;;;;9.50;2.50;;;12.00;99.90;;;;;;5058332;28;20048;-75
2022/02/16 11:23:56;;;;;;;8.98;2.38;;;12.00;99.90;;;;;;5054227;28;20048;-75
2022/02/16 11:26:36;;;;;;;8.38;1.77;;;12.00;99.90;;;;;;5084177;28;20041;-75
2022/02/16 11:29:25;;;;;;;9.75;1.90;;;12.10;99.90;;;;;;5063878;28;20072;-75
2022/02/16 11:31:52;;;;;;;6.70;1.77;;;12.10;99.90;;;;;;5091577;28;20098;-75
2022/02/16 11:34:22;;;;;;;11.48;2.55;;;12.20;99.90;;;;;;5091706;28;20036;-75
2022/02/16 11:36:58;;;;;;;9.77;1.90;;;12.20;99.90;;;;;;5062409;28;20067;-74
2022/02/16 11:39:45;;;;;;;6.40;1.40;;;12.10;99.90;;;;;;5066889;28;20360;-74
2022/02/16 11:42:18;;;;;;;7.10;1.80;;;12.20;99.90;;;;;;5067161;28;20120;-74
2022/02/16 11:44:50;;;;;;;8.07;1.98;;;12.20;99.90;;;;;;5047968;28;20045;-74
2022/02/16 11:47:34;;;;;;;8.35;1.40;;;12.30;99.90;;;;;;5069875;28;20179;-75
2022/02/16 11:50:09;;;;;;;8.05;1.80;;;12.20;99.90;;;;;;5067378;28;20064;-75
2022/02/16 11:52:43;;;;;;;5.72;1.48;;;12.30;99.90;;;;;;5051826;28;20032;-76
2022/02/16 11:55:22;;;;;;;11.75;2.58;;;12.10;99.90;;;;;;5062377;28;20048;-75
2022/02/16 11:58:03;;;;;;;5.57;1.55;;;12.10;99.90;;;;;;5072605;28;20533;-76
2022/02/16 12:00:40;;;;;;;5.88;1.63;;;12.10;99.90;;;;;;5071753;28;20390;-75
2022/02/16 12:03:20;;;;;;;10.23;2.03;;;12.00;99.90;;;;;;5075928;28;20072;-76
2022/02/16 12:05:58;;;;;;;13.00;2.38;;;12.10;99.90;;;;;;5055938;28;20075;-76
2022/02/16 12:08:37;;;;;;;7.82;2.75;;;12.00;99.90;;;;;;5092477;28;20102;-75
2022/02/16 12:11:19;;;;;;;8.13;1.95;;;12.00;99.90;;;;;;5067964;28;20059;-75
2022/02/16 12:14:04;;;;;;;5.75;1.63;;;11.90;99.90;;;;;;5059815;28;20075;-75
2022/02/16 12:16:58;;;;;;;7.68;1.83;;;11.90;99.90;;;;;;5077145;28;20045;-75
2022/02/16 12:19:26;;;;;;;9.23;2.55;;;12.00;99.90;;;;;;5055383;28;20060;-76
2022/02/16 12:21:53;;;;;;;7.68;2.20;;;12.00;99.90;;;;;;5084435;28;20041;-76
2022/02/16 12:24:26;;;;;;;10.38;2.25;;;12.00;99.90;;;;;;5050722;28;20458;-76
2022/02/16 12:26:57;;;;;;;6.65;1.90;;;11.90;99.90;;;;;;5055133;28;20067;-79
2022/02/16 12:29:28;;;;;;;9.00;2.10;;;11.90;99.90;;;;;;5047026;28;20056;-80
2022/02/16 12:32:00;;;;;;;14.18;3.38;;;11.90;99.90;;;;;;5047754;28;20045;-79
2022/02/16 12:34:32;;;;;;;9.90;2.92;;;11.90;99.90;;;;;;5053953;28;20116;-79
2022/02/16 12:37:05;;;;;;;9.95;2.22;;;11.90;99.90;;;;;;5072022;28;20045;-78
2022/02/16 12:39:33;;;;;;;9.45;2.03;;;12.00;99.90;;;;;;5067091;28;20055;-79
2022/02/16 12:42:10;;;;;;;13.88;2.47;;;12.00;99.90;;;;;;5064836;28;20385;-79
2022/02/16 12:44:38;;;;;;;9.88;1.98;;;12.00;99.90;;;;;;5059042;28;20544;-79
2022/02/16 12:47:06;;;;;;;13.93;2.65;;;11.90;99.90;;;;;;5070066;28;20055;-78